VTSR

Ranong Airport

Thailand
TAF VTSR 171700Z 1718/1818 00000KT 8000 SCT020 BECMG 1801/1803 24010KT 9999 TEMPO 1804/1810 24015G30KT 5000 TSRA FEW018CB SCT020 BKN100
Issued Valid From Valid To
Oct-17 @ 17:00 UTC
(3 hours ago)
Oct-17 @ 18:00 UTC
(2 hours ago)
Oct-18 @ 18:00 UTC
(in 22 hours)
Oct-17 @ 18:00 to Oct-18 @ 01:00
TAF VTSR 171700Z 1718/1818 00000KT 8000 SCT020
Visibility Clouds
7,998 meters
  • Scattered at 2,000' AGL
Becoming Oct-18 @ 01:00 to Oct-18 @ 18:00
BECMG 1801/1803 24010KT 9999
Wind Visibility Clouds
240° at 10 knots 10,000+ meters
  • Scattered at 2,000' AGL
Temporary Oct-18 @ 04:00 to Oct-18 @ 10:00
TEMPO 1804/1810 24015G30KT 5000 TSRA FEW018CB SCT020 BKN100
Wind Visibility Clouds Conditions
240° at 15 knots
 Gusting to 30 knots
5,005 meters
  • Few at 1,800' AGL
  • Scattered at 2,000' AGL
  • Broken at 10,000' AGL
  • Thunderstorm
  • Rain
TAF VTSR 171700Z 1718/1818 00000KT 8000 SCT020 BECMG 1801/1803 24010KT 9999 TEMPO 1804/1810 24015G30KT 5000 TSRA FEW018CB SCT020 BKN100
Issued Oct-17 @ 17:00 UTC
(3 hours ago)
Valid From Oct-17 @ 18:00 UTC
(2 hours ago)
Valid To Oct-18 @ 18:00 UTC
(in 22 hours)
Oct-17 @ 18:00 - Oct-18 @ 01:00
Clouds
  • Scattered at 2,000' AGL
Becoming Oct-18 @ 01:00 - Oct-18 @ 18:00
Wind Visibility
240° at 10 knots 10,000+ meters
Clouds
  • Scattered at 2,000' AGL
Temporary Oct-18 @ 04:00 - Oct-18 @ 10:00
Wind Visibility
240° at 15 knots
 Gusting to 30 knots
5,005 meters
Clouds
  • Few at 1,800' AGL
  • Scattered at 2,000' AGL
  • Broken at 10,000' AGL
Conditions
  • Thunderstorm
  • Rain